Time;durP1;ratioP1;P1;durP2;ratioP2;P2;SDS_P1;SDS_P2;PMS_P1;PMS_P2;Temp;Humidity;BMP_temperature;BMP_pressure;BME280_temperature;BME280_humidity;BME280_pressure;Samples;Min_cycle;Max_cycle;Signal;HPM_P1;HPM_P2
2023/11/29 00:02:07;;;;;;;2.55;1.08;;;0.50;1.00;;;;;;5071956;28;20992;-57
2023/11/29 00:04:34;;;;;;;3.20;1.25;;;0.40;1.00;;;;;;5072229;28;20477;-57
2023/11/29 00:07:01;;;;;;;2.25;1.10;;;0.50;1.00;;;;;;5072447;28;20842;-56
2023/11/29 00:09:28;;;;;;;2.53;1.35;;;0.70;1.00;;;;;;5070936;28;20519;-56
2023/11/29 00:11:55;;;;;;;2.03;1.03;;;1.00;1.00;;;;;;5072215;28;20454;-53
2023/11/29 00:14:22;;;;;;;1.90;1.05;;;1.10;99.90;;;;;;5071318;28;20418;-55
2023/11/29 00:16:49;;;;;;;2.67;1.40;;;1.00;99.90;;;;;;5071578;28;20431;-56
2023/11/29 00:19:18;;;;;;;2.17;1.30;;;1.00;99.90;;;;;;5072018;28;20427;-52
2023/11/29 00:21:45;;;;;;;2.53;1.50;;;1.10;1.00;;;;;;5072592;28;20416;-56
2023/11/29 00:24:12;;;;;;;2.90;1.30;;;1.40;1.00;;;;;;5072987;28;20449;-55
2023/11/29 00:26:39;;;;;;;3.05;1.30;;;1.50;99.90;;;;;;5072767;28;20422;-56
2023/11/29 00:29:06;;;;;;;2.60;1.17;;;1.50;99.90;;;;;;5074726;28;20427;-56
2023/11/29 00:31:35;;;;;;;2.15;1.27;;;1.20;99.90;;;;;;5073487;28;20424;-55
2023/11/29 00:34:02;;;;;;;2.10;1.20;;;1.00;99.90;;;;;;5073624;28;20428;-56
2023/11/29 00:36:30;;;;;;;3.70;1.40;;;1.00;99.90;;;;;;5074098;28;20530;-55
2023/11/29 00:38:57;;;;;;;3.65;1.40;;;1.10;99.90;;;;;;5073235;28;20489;-56
2023/11/29 00:41:26;;;;;;;2.78;1.40;;;1.10;99.90;;;;;;5073421;28;20408;-57
2023/11/29 00:43:53;;;;;;;3.92;1.58;;;0.90;99.90;;;;;;5073529;28;20433;-57
2023/11/29 00:46:20;;;;;;;1.97;1.40;;;0.80;99.90;;;;;;5074215;28;20638;-57
2023/11/29 00:48:47;;;;;;;3.22;1.30;;;0.70;99.90;;;;;;5076550;28;20427;-55
2023/11/29 00:51:15;;;;;;;3.60;1.30;;;0.70;99.90;;;;;;5076227;28;20719;-57
2023/11/29 00:53:44;;;;;;;2.55;1.30;;;0.60;1.00;;;;;;5076936;28;20461;-56
2023/11/29 00:56:11;;;;;;;3.25;1.55;;;0.60;1.00;;;;;;5076658;28;20454;-56
2023/11/29 00:58:38;;;;;;;3.20;1.70;;;0.70;1.00;;;;;;5077238;28;20916;-56
2023/11/29 01:01:06;;;;;;;3.45;1.80;;;0.90;10.10;;;;;;5076581;28;20803;-54
2023/11/29 01:03:33;;;;;;;4.53;1.50;;;1.10;4.60;;;;;;5076793;28;20427;-55
2023/11/29 01:06:00;;;;;;;2.80;1.33;;;1.10;99.90;;;;;;5076530;28;20412;-56
2023/11/29 01:08:27;;;;;;;3.47;1.30;;;1.10;99.90;;;;;;5076856;28;20425;-54
2023/11/29 01:10:56;;;;;;;3.40;1.60;;;1.00;99.90;;;;;;5076392;28;20730;-57
2023/11/29 01:13:23;;;;;;;3.47;1.25;;;1.00;99.90;;;;;;5076065;28;20426;-55
2023/11/29 01:15:51;;;;;;;5.07;1.30;;;1.00;99.90;;;;;;5076693;28;20450;-54
2023/11/29 01:18:18;;;;;;;3.15;1.40;;;1.00;99.90;;;;;;5075562;28;20522;-54
2023/11/29 01:20:46;;;;;;;2.50;1.50;;;1.00;99.90;;;;;;5076270;28;20807;-55
2023/11/29 01:23:13;;;;;;;2.95;1.30;;;1.00;99.90;;;;;;5076365;28;20420;-55
2023/11/29 01:25:40;;;;;;;2.63;1.50;;;1.00;99.90;;;;;;5076177;28;20868;-54
2023/11/29 01:28:10;;;;;;;2.70;1.30;;;1.00;99.90;;;;;;5076020;28;20430;-54
2023/11/29 01:30:37;;;;;;;4.88;1.55;;;1.00;99.90;;;;;;5076089;28;20542;-56
2023/11/29 01:33:04;;;;;;;3.05;1.48;;;1.00;99.90;;;;;;5076890;28;20416;-55
2023/11/29 01:35:31;;;;;;;2.75;1.35;;;1.00;99.90;;;;;;5075967;28;20434;-54
2023/11/29 01:37:59;;;;;;;3.70;1.40;;;0.90;99.90;;;;;;5076836;28;20430;-55
2023/11/29 01:40:26;;;;;;;3.10;1.40;;;0.90;99.90;;;;;;5076646;28;20512;-56
2023/11/29 01:42:53;;;;;;;3.75;1.25;;;0.90;99.90;;;;;;5076240;28;20423;-55
2023/11/29 01:45:21;;;;;;;3.55;1.40;;;1.00;99.90;;;;;;5075846;28;20902;-57
2023/11/29 01:47:48;;;;;;;3.57;1.30;;;1.00;99.90;;;;;;5075995;28;20419;-51
2023/11/29 01:50:18;;;;;;;2.53;1.10;;;1.00;99.90;;;;;;5075371;28;20423;-54
2023/11/29 01:52:45;;;;;;;2.30;1.30;;;1.10;99.90;;;;;;5076337;28;20430;-54
2023/11/29 01:55:13;;;;;;;2.75;1.20;;;1.20;99.90;;;;;;5075272;28;20439;-56
2023/11/29 01:57:41;;;;;;;2.60;1.20;;;1.20;99.90;;;;;;5075062;28;20835;-55
2023/11/29 02:00:11;;;;;;;2.60;1.20;;;1.20;99.90;;;;;;5074209;28;20715;-52
2023/11/29 02:02:40;;;;;;;1.90;1.00;;;1.30;99.90;;;;;;5074291;28;20458;-56
2023/11/29 02:05:08;;;;;;;1.80;1.00;;;1.50;99.90;;;;;;5074412;28;20965;-56
2023/11/29 02:07:35;;;;;;;2.10;1.10;;;1.70;99.90;;;;;;5075606;28;20419;-56
2023/11/29 02:10:04;;;;;;;2.10;1.00;;;1.60;99.90;;;;;;5074041;28;20427;-57
2023/11/29 02:12:31;;;;;;;2.22;1.00;;;1.70;99.90;;;;;;5074343;28;20432;-56
2023/11/29 02:14:58;;;;;;;2.67;1.40;;;1.80;99.90;;;;;;5075501;28;20458;-57
2023/11/29 02:17:26;;;;;;;2.00;1.00;;;1.90;99.90;;;;;;5075987;28;20411;-57
2023/11/29 02:19:54;;;;;;;2.47;1.02;;;1.90;99.90;;;;;;5075777;28;20424;-53
2023/11/29 02:22:24;;;;;;;1.95;1.00;;;1.80;99.90;;;;;;5075289;28;20503;-56
2023/11/29 02:24:53;;;;;;;2.35;1.08;;;1.60;99.90;;;;;;5075415;28;20738;-54
2023/11/29 02:27:21;;;;;;;1.52;1.00;;;1.50;99.90;;;;;;5075724;28;20427;-54
2023/11/29 02:29:48;;;;;;;1.63;1.00;;;1.50;1.00;;;;;;5074889;28;20731;-53
2023/11/29 02:32:15;;;;;;;2.10;0.90;;;1.50;99.90;;;;;;5075011;28;20422;-57
2023/11/29 02:34:43;;;;;;;1.95;1.10;;;1.40;99.90;;;;;;5075869;28;20433;-53
2023/11/29 02:37:10;;;;;;;2.25;1.00;;;1.20;99.90;;;;;;5074390;28;20526;-56
2023/11/29 02:39:37;;;;;;;1.73;0.90;;;1.10;99.90;;;;;;5073154;28;20427;-56
2023/11/29 02:42:06;;;;;;;2.13;0.90;;;1.00;99.90;;;;;;5073639;28;20895;-53
2023/11/29 02:44:33;;;;;;;2.22;1.00;;;1.10;99.90;;;;;;5073887;28;20494;-55
2023/11/29 02:47:01;;;;;;;1.92;0.90;;;1.00;99.90;;;;;;5073815;28;20426;-52
2023/11/29 02:49:28;;;;;;;1.90;0.90;;;0.90;99.90;;;;;;5073960;28;20870;-51
2023/11/29 02:51:55;;;;;;;1.98;1.10;;;0.80;99.90;;;;;;5073896;28;20735;-56
2023/11/29 02:54:22;;;;;;;2.65;1.10;;;0.60;99.90;;;;;;5075150;28;20506;-55
2023/11/29 02:56:49;;;;;;;2.15;1.00;;;0.50;1.00;;;;;;5075074;28;20730;-56
2023/11/29 02:59:18;;;;;;;1.98;1.10;;;0.40;1.00;;;;;;5074893;28;20427;-52
2023/11/29 03:01:45;;;;;;;2.90;1.00;;;0.30;1.00;;;;;;5073729;28;20591;-57
2023/11/29 03:04:12;;;;;;;2.60;1.00;;;0.20;1.00;;;;;;5074548;28;20430;-54
2023/11/29 03:06:39;;;;;;;3.70;1.13;;;0.30;1.00;;;;;;5074302;28;20418;-53
2023/11/29 03:09:07;;;;;;;2.20;0.90;;;0.30;1.00;;;;;;5074354;28;20439;-54
2023/11/29 03:11:34;;;;;;;1.95;1.10;;;0.20;1.00;;;;;;5074282;28;20503;-54
2023/11/29 03:14:01;;;;;;;2.65;1.10;;;0.20;1.00;;;;;;5074274;28;20858;-55
2023/11/29 03:16:29;;;;;;;3.20;1.10;;;0.10;1.00;;;;;;5074560;28;20439;-56
2023/11/29 03:18:57;;;;;;;2.30;1.00;;;0.10;1.00;;;;;;5074481;28;20433;-55
2023/11/29 03:21:24;;;;;;;2.33;1.10;;;0.20;1.00;;;;;;5073581;28;20424;-56
2023/11/29 03:23:51;;;;;;;2.20;1.00;;;0.30;1.00;;;;;;5072486;28;20419;-52
2023/11/29 03:26:18;;;;;;;2.10;1.00;;;0.40;1.00;;;;;;5073477;28;20876;-54
2023/11/29 03:28:45;;;;;;;1.63;0.90;;;0.40;1.00;;;;;;5073366;28;20424;-56
2023/11/29 03:31:12;;;;;;;3.13;1.00;;;0.40;99.90;;;;;;5073638;28;20509;-55
2023/11/29 03:33:41;;;;;;;1.83;1.00;;;0.40;1.00;;;;;;5073362;28;20458;-53
2023/11/29 03:36:09;;;;;;;2.50;1.00;;;0.40;99.90;;;;;;5073713;28;20435;-56
2023/11/29 03:38:36;;;;;;;1.98;0.80;;;0.40;99.90;;;;;;5074038;28;20419;-54
2023/11/29 03:41:03;;;;;;;3.20;1.00;;;0.40;99.90;;;;;;5074075;28;20423;-55
2023/11/29 03:43:30;;;;;;;2.40;0.80;;;0.50;99.90;;;;;;5073288;28;20542;-53
2023/11/29 03:45:57;;;;;;;2.83;0.98;;;0.40;99.90;;;;;;5073843;28;20426;-55
2023/11/29 03:48:24;;;;;;;2.60;0.90;;;0.40;99.90;;;;;;5074016;28;20450;-56
2023/11/29 03:50:53;;;;;;;2.20;0.82;;;0.30;99.90;;;;;;5074243;28;20406;-55
2023/11/29 03:53:20;;;;;;;2.72;0.90;;;0.30;99.90;;;;;;5073793;28;20462;-52
2023/11/29 03:55:47;;;;;;;2.65;1.30;;;0.30;99.90;;;;;;5072509;28;20908;-54
2023/11/29 03:58:14;;;;;;;2.00;1.00;;;0.40;1.00;;;;;;5072193;28;20433;-55
2023/11/29 04:00:42;;;;;;;1.85;1.10;;;0.50;99.90;;;;;;5072867;28;20427;-54
2023/11/29 04:03:09;;;;;;;1.60;0.80;;;0.50;99.90;;;;;;5073372;28;20419;-55
2023/11/29 04:05:36;;;;;;;2.90;1.05;;;0.50;99.90;;;;;;5071855;28;20502;-56
2023/11/29 04:08:05;;;;;;;1.50;0.80;;;0.40;99.90;;;;;;5072750;28;20434;-55
2023/11/29 04:10:33;;;;;;;2.70;0.80;;;0.40;99.90;;;;;;5073715;28;20580;-53
2023/11/29 04:13:01;;;;;;;2.10;0.90;;;0.40;99.90;;;;;;5073543;28;20434;-53
2023/11/29 04:15:28;;;;;;;2.08;1.10;;;0.40;99.90;;;;;;5073087;28;20496;-54
2023/11/29 04:17:55;;;;;;;2.75;1.10;;;0.30;99.90;;;;;;5073678;28;20894;-55
2023/11/29 04:20:22;;;;;;;3.28;1.00;;;0.30;99.90;;;;;;5074498;28;20407;-51
2023/11/29 04:22:49;;;;;;;2.05;0.90;;;0.30;99.90;;;;;;5077371;28;20427;-55
2023/11/29 04:25:19;;;;;;;2.30;1.07;;;0.30;99.90;;;;;;5077246;28;20454;-56
2023/11/29 04:27:46;;;;;;;2.22;0.90;;;0.40;99.90;;;;;;5077252;28;20426;-56
2023/11/29 04:30:13;;;;;;;2.33;0.90;;;0.30;99.90;;;;;;5077541;28;20430;-54
2023/11/29 04:32:40;;;;;;;1.80;1.00;;;0.30;99.90;;;;;;5076893;28;20698;-56
2023/11/29 04:35:08;;;;;;;2.05;1.10;;;0.30;99.90;;;;;;5075630;28;20432;-55
2023/11/29 04:37:35;;;;;;;4.25;1.10;;;0.30;99.90;;;;;;5076356;28;20435;-55
2023/11/29 04:40:02;;;;;;;2.38;0.90;;;0.20;99.90;;;;;;5077257;28;20459;-57
2023/11/29 04:42:31;;;;;;;2.20;1.00;;;0.10;99.90;;;;;;5077260;28;20846;-54
2023/11/29 04:44:58;;;;;;;2.30;1.00;;;0.00;99.90;;;;;;5077635;28;20411;-50
2023/11/29 04:47:25;;;;;;;3.17;1.10;;;0.00;99.90;;;;;;5076594;28;20419;-52
2023/11/29 04:49:54;;;;;;;2.00;1.08;;;0.10;1.00;;;;;;5075712;28;20428;-50
2023/11/29 04:52:22;;;;;;;2.45;1.00;;;0.10;99.90;;;;;;5076331;28;20718;-55
2023/11/29 04:54:49;;;;;;;2.67;0.90;;;0.30;99.90;;;;;;5076022;28;20425;-55
2023/11/29 04:57:16;;;;;;;2.33;1.00;;;0.30;99.90;;;;;;5076015;28;20443;-56
2023/11/29 04:59:44;;;;;;;2.70;1.00;;;0.20;1.00;;;;;;5076083;28;20419;-54
2023/11/29 05:02:11;;;;;;;2.00;0.93;;;0.40;99.90;;;;;;5074839;28;20417;-52
2023/11/29 05:04:38;;;;;;;1.95;1.00;;;0.50;99.90;;;;;;5075461;28;20429;-52
2023/11/29 05:07:06;;;;;;;3.20;0.90;;;0.50;99.90;;;;;;5075240;28;20876;-57
2023/11/29 05:09:33;;;;;;;5.32;1.20;;;0.50;99.90;;;;;;5076096;28;20423;-56
2023/11/29 05:12:00;;;;;;;3.03;1.10;;;0.50;99.90;;;;;;5075906;28;20422;-58
2023/11/29 05:14:27;;;;;;;2.90;1.10;;;0.30;99.90;;;;;;5076149;28;20722;-56
2023/11/29 05:16:55;;;;;;;2.90;1.20;;;0.40;99.90;;;;;;5076104;28;20507;-57
2023/11/29 05:19:22;;;;;;;2.35;1.00;;;0.40;99.90;;;;;;5076235;28;20469;-57
2023/11/29 05:21:50;;;;;;;2.00;1.10;;;0.40;99.90;;;;;;5076103;28;20420;-54
2023/11/29 05:24:17;;;;;;;2.10;1.00;;;0.40;99.90;;;;;;5075472;28;20428;-54
2023/11/29 05:26:44;;;;;;;2.30;1.10;;;0.40;99.90;;;;;;5073878;28;20778;-54
2023/11/29 05:29:11;;;;;;;2.00;1.00;;;0.40;99.90;;;;;;5075454;28;20698;-52
2023/11/29 05:31:38;;;;;;;2.33;1.00;;;0.50;99.90;;;;;;5075798;28;20920;-55
2023/11/29 05:34:07;;;;;;;2.50;1.00;;;0.60;99.90;;;;;;5076401;28;20427;-55
2023/11/29 05:36:34;;;;;;;2.53;1.10;;;0.50;99.90;;;;;;5076083;28;20435;-55
2023/11/29 05:39:02;;;;;;;2.83;1.30;;;0.50;99.90;;;;;;5076188;28;20827;-56
2023/11/29 05:41:29;;;;;;;2.30;1.00;;;0.40;99.90;;;;;;5076401;28;20419;-57
2023/11/29 05:43:56;;;;;;;2.58;1.00;;;0.50;99.90;;;;;;5075990;28;20711;-58
2023/11/29 05:46:24;;;;;;;2.40;1.10;;;0.50;99.90;;;;;;5075648;28;20506;-59
2023/11/29 05:48:51;;;;;;;3.42;1.10;;;0.40;99.90;;;;;;5074330;28;20527;-58
2023/11/29 05:51:19;;;;;;;3.35;1.10;;;0.60;99.90;;;;;;5072254;28;20726;-58
2023/11/29 05:53:46;;;;;;;2.80;1.00;;;0.50;99.90;;;;;;5072833;28;20427;-57
2023/11/29 05:56:14;;;;;;;2.75;1.10;;;0.50;99.90;;;;;;5073478;28;20415;-57
2023/11/29 05:58:42;;;;;;;2.80;1.00;;;0.50;99.90;;;;;;5073864;28;20435;-55
2023/11/29 06:01:10;;;;;;;2.47;1.10;;;0.70;1.00;;;;;;5072394;28;20431;-58
2023/11/29 06:03:37;;;;;;;3.15;1.10;;;0.70;99.90;;;;;;5072834;28;20703;-57
2023/11/29 06:06:05;;;;;;;2.25;1.10;;;0.60;99.90;;;;;;5072752;28;20616;-57
2023/11/29 06:08:34;;;;;;;3.13;1.10;;;0.60;99.90;;;;;;5074497;28;20831;-57
2023/11/29 06:11:04;;;;;;;2.40;1.05;;;0.50;99.90;;;;;;5073379;28;20431;-56
2023/11/29 06:13:31;;;;;;;3.35;1.10;;;0.50;99.90;;;;;;5074980;28;20427;-57
2023/11/29 06:15:58;;;;;;;2.40;1.00;;;0.50;99.90;;;;;;5074528;28;20416;-57
2023/11/29 06:18:25;;;;;;;2.47;1.10;;;0.60;99.90;;;;;;5074034;28;20930;-57
2023/11/29 06:20:52;;;;;;;2.08;0.90;;;0.60;99.90;;;;;;5072250;28;20420;-57
2023/11/29 06:23:19;;;;;;;2.90;1.00;;;0.70;99.90;;;;;;5072243;28;20507;-56
2023/11/29 06:25:49;;;;;;;2.33;1.20;;;0.70;99.90;;;;;;5071820;28;20420;-56
2023/11/29 06:28:16;;;;;;;2.35;1.10;;;0.70;1.00;;;;;;5071235;28;20424;-57
2023/11/29 06:30:44;;;;;;;2.40;1.10;;;0.70;99.90;;;;;;5072399;28;20427;-56
2023/11/29 06:33:11;;;;;;;3.55;1.10;;;0.80;99.90;;;;;;5074389;28;20517;-54
2023/11/29 06:35:38;;;;;;;3.08;0.98;;;0.90;99.90;;;;;;5071179;28;20723;-56
2023/11/29 06:38:05;;;;;;;3.20;1.00;;;0.90;99.90;;;;;;5071945;28;20436;-56
2023/11/29 06:40:33;;;;;;;2.20;1.03;;;0.90;99.90;;;;;;5072056;28;20428;-58
2023/11/29 06:43:02;;;;;;;2.00;1.00;;;0.90;99.90;;;;;;5070497;28;20800;-56
2023/11/29 06:45:29;;;;;;;1.80;1.00;;;0.90;99.90;;;;;;5070592;28;20640;-57
2023/11/29 06:47:56;;;;;;;2.20;1.10;;;1.10;99.90;;;;;;5070911;28;20420;-55
2023/11/29 06:50:23;;;;;;;2.15;1.10;;;1.10;99.90;;;;;;5072822;28;20426;-57
2023/11/29 06:52:50;;;;;;;2.95;1.20;;;1.10;99.90;;;;;;5074049;28;20734;-57
2023/11/29 06:55:17;;;;;;;3.35;1.02;;;1.00;99.90;;;;;;5072759;28;20419;-58
2023/11/29 06:57:44;;;;;;;2.60;1.20;;;1.00;99.90;;;;;;5073100;28;20734;-55
2023/11/29 07:00:16;;;;;;;2.55;1.13;;;0.90;99.90;;;;;;5069661;28;20423;-55
2023/11/29 07:02:44;;;;;;;2.80;1.10;;;0.80;99.90;;;;;;5070272;28;20552;-55
2023/11/29 07:05:11;;;;;;;3.28;1.10;;;0.90;99.90;;;;;;5067604;28;20532;-57
2023/11/29 07:07:38;;;;;;;2.22;1.20;;;1.00;99.90;;;;;;5070519;28;21073;-57
2023/11/29 07:10:07;;;;;;;2.00;1.00;;;1.00;99.90;;;;;;5069151;28;20435;-55
2023/11/29 07:12:35;;;;;;;2.35;1.10;;;1.00;99.90;;;;;;5065572;28;20455;-55
2023/11/29 07:15:02;;;;;;;3.50;1.35;;;1.00;99.90;;;;;;5069888;28;20765;-56
2023/11/29 07:17:30;;;;;;;2.70;1.20;;;0.90;99.90;;;;;;5070056;28;20423;-56
2023/11/29 07:20:00;;;;;;;3.63;1.10;;;0.90;99.90;;;;;;5069208;28;20731;-57
2023/11/29 07:22:27;;;;;;;2.85;1.30;;;0.80;99.90;;;;;;5069149;28;20573;-58
2023/11/29 07:24:55;;;;;;;3.97;1.40;;;0.90;99.90;;;;;;5068667;28;20671;-56
2023/11/29 07:27:22;;;;;;;2.60;1.20;;;0.90;99.90;;;;;;5066025;28;20438;-57
2023/11/29 07:29:49;;;;;;;1.88;1.10;;;1.10;99.90;;;;;;5067322;28;20430;-56
2023/11/29 07:32:17;;;;;;;3.58;1.30;;;1.30;1.00;;;;;;5066741;28;20426;-57
2023/11/29 07:34:47;;;;;;;2.60;1.10;;;1.40;99.90;;;;;;5066318;28;20801;-57
2023/11/29 07:37:18;;;;;;;2.40;1.10;;;1.40;99.90;;;;;;5067222;28;20438;-57
2023/11/29 07:39:45;;;;;;;2.65;1.20;;;1.50;99.90;;;;;;5069489;28;20449;-57
2023/11/29 07:42:12;;;;;;;2.10;1.00;;;1.50;99.90;;;;;;5066113;28;20491;-57
2023/11/29 07:44:39;;;;;;;2.30;1.07;;;1.50;99.90;;;;;;5065474;28;20415;-57
2023/11/29 07:47:07;;;;;;;3.35;1.20;;;1.40;99.90;;;;;;5063436;28;20435;-56
2023/11/29 07:49:34;;;;;;;2.88;1.10;;;1.40;99.90;;;;;;5063845;28;20440;-58
2023/11/29 07:52:03;;;;;;;2.70;1.20;;;1.30;99.90;;;;;;5064851;28;20423;-57
2023/11/29 07:54:31;;;;;;;2.47;1.00;;;1.30;99.90;;;;;;5074270;28;20438;-57
2023/11/29 07:56:58;;;;;;;2.80;1.15;;;1.30;99.90;;;;;;5068581;28;20495;-56
2023/11/29 07:59:25;;;;;;;1.73;0.98;;;1.30;99.90;;;;;;5070854;28;20431;-56
2023/11/29 08:01:52;;;;;;;2.40;1.20;;;1.40;99.90;;;;;;5075988;28;20439;-57
2023/11/29 08:04:20;;;;;;;3.13;0.90;;;1.40;99.90;;;;;;5071615;28;20439;-55
2023/11/29 08:06:47;;;;;;;1.80;0.90;;;1.50;99.90;;;;;;5070562;28;20423;-57
2023/11/29 08:09:15;;;;;;;2.05;0.90;;;1.50;99.90;;;;;;5072578;28;20430;-56
2023/11/29 08:11:44;;;;;;;1.30;0.90;;;1.50;99.90;;;;;;5070724;28;20509;-58
2023/11/29 08:14:11;;;;;;;2.20;1.00;;;1.60;99.90;;;;;;5071251;28;20500;-57
2023/11/29 08:16:38;;;;;;;1.30;0.88;;;1.70;99.90;;;;;;5070049;28;20439;-58
2023/11/29 08:19:06;;;;;;;1.90;0.90;;;1.70;99.90;;;;;;5070284;28;20821;-56
2023/11/29 08:21:33;;;;;;;1.73;0.80;;;1.60;99.90;;;;;;5069752;28;20769;-55
2023/11/29 08:24:01;;;;;;;1.85;0.80;;;1.50;99.90;;;;;;5069008;28;20447;-57
2023/11/29 08:26:30;;;;;;;2.30;1.00;;;1.50;99.90;;;;;;5070393;28;20899;-58
2023/11/29 08:28:58;;;;;;;1.80;0.80;;;1.70;99.90;;;;;;5070621;28;20734;-58
2023/11/29 08:31:25;;;;;;;1.60;0.80;;;1.70;99.90;;;;;;5070179;28;20514;-58
2023/11/29 08:33:52;;;;;;;1.73;0.80;;;1.80;99.90;;;;;;5070087;28;20510;-57
2023/11/29 08:36:20;;;;;;;1.80;0.82;;;1.90;99.90;;;;;;5081720;28;20437;-58
2023/11/29 08:38:51;;;;;;;1.90;1.00;;;1.90;99.90;;;;;;5071405;28;20893;-59
2023/11/29 08:41:19;;;;;;;1.40;0.80;;;1.90;99.90;;;;;;5073459;28;20438;-58
2023/11/29 08:43:48;;;;;;;2.00;0.90;;;2.00;99.90;;;;;;5067428;28;20439;-59
2023/11/29 08:46:15;;;;;;;1.67;0.80;;;2.00;99.90;;;;;;5069803;28;20739;-59
2023/11/29 08:48:43;;;;;;;1.55;0.80;;;1.90;99.90;;;;;;5070369;28;20855;-58
2023/11/29 08:51:10;;;;;;;1.80;0.80;;;1.90;99.90;;;;;;5072961;28;20431;-58
2023/11/29 08:53:38;;;;;;;1.20;0.70;;;2.00;99.90;;;;;;5072592;28;20416;-58
2023/11/29 08:56:16;;;;;;;1.85;0.80;;;2.00;99.90;;;;;;5070946;28;20504;-59
2023/11/29 08:58:45;;;;;;;1.35;0.80;;;2.10;99.90;;;;;;5069360;28;20501;-59
2023/11/29 09:01:14;;;;;;;1.30;0.80;;;2.10;99.90;;;;;;5071737;28;20438;-63
2023/11/29 09:03:42;;;;;;;1.20;0.70;;;2.10;99.90;;;;;;5073820;28;20786;-64
2023/11/29 09:06:09;;;;;;;1.60;0.60;;;2.20;99.90;;;;;;5071831;28;20526;-64
2023/11/29 09:08:36;;;;;;;1.67;0.80;;;2.20;99.90;;;;;;5069562;28;20457;-64
2023/11/29 09:11:04;;;;;;;1.17;0.77;;;2.20;99.90;;;;;;5069535;28;20438;-64
2023/11/29 09:13:31;;;;;;;1.30;0.60;;;2.30;99.90;;;;;;5070604;28;20419;-64
2023/11/29 09:15:59;;;;;;;1.67;0.75;;;2.20;99.90;;;;;;5071421;28;20435;-64
2023/11/29 09:18:27;;;;;;;1.37;0.70;;;2.30;99.90;;;;;;5068083;28;20641;-64
2023/11/29 09:20:55;;;;;;;1.77;0.70;;;2.30;99.90;;;;;;5068359;28;20931;-64
2023/11/29 09:23:22;;;;;;;1.50;0.80;;;2.20;99.90;;;;;;5068672;28;20793;-64
2023/11/29 09:25:49;;;;;;;1.40;0.70;;;2.20;99.90;;;;;;5069352;28;20441;-64
2023/11/29 09:28:16;;;;;;;1.27;0.80;;;2.20;99.90;;;;;;5068717;28;20603;-64
2023/11/29 09:30:44;;;;;;;1.33;0.73;;;2.30;99.90;;;;;;5069292;28;20424;-64
2023/11/29 09:33:11;;;;;;;1.10;0.70;;;2.60;99.90;;;;;;5071178;28;20443;-64
2023/11/29 09:35:41;;;;;;;1.80;0.80;;;2.70;99.90;;;;;;5074266;28;20411;-65
2023/11/29 09:38:08;;;;;;;1.45;0.70;;;2.80;99.90;;;;;;5073119;28;20439;-64
2023/11/29 09:40:35;;;;;;;1.40;0.80;;;2.90;99.90;;;;;;5072667;28;20452;-65
2023/11/29 09:43:03;;;;;;;1.40;0.70;;;2.90;99.90;;;;;;5093713;28;20512;-64
2023/11/29 09:45:30;;;;;;;1.40;0.70;;;3.00;99.90;;;;;;5091132;28;20429;-65
2023/11/29 09:47:58;;;;;;;1.10;0.70;;;3.00;99.90;;;;;;5091356;28;20414;-64
2023/11/29 09:50:26;;;;;;;1.90;0.75;;;2.80;99.90;;;;;;5070902;28;20537;-65
2023/11/29 09:52:57;;;;;;;1.30;0.80;;;2.70;99.90;;;;;;5053957;28;20854;-65
2023/11/29 09:55:25;;;;;;;1.10;0.70;;;2.90;99.90;;;;;;5068132;28;20431;-65
2023/11/29 09:57:53;;;;;;;1.30;0.70;;;2.90;99.90;;;;;;5073078;28;20435;-64
2023/11/29 10:00:20;;;;;;;1.08;0.60;;;2.80;99.90;;;;;;5073799;28;20712;-65
2023/11/29 10:02:47;;;;;;;1.30;0.70;;;2.70;99.90;;;;;;5071159;28;20461;-64
2023/11/29 10:05:14;;;;;;;1.30;0.80;;;2.70;99.90;;;;;;5072809;28;20423;-64
2023/11/29 10:07:42;;;;;;;1.17;0.70;;;2.80;99.90;;;;;;5057989;28;20579;-64
2023/11/29 10:10:11;;;;;;;1.13;0.70;;;2.70;99.90;;;;;;5049953;28;20487;-63
2023/11/29 10:12:39;;;;;;;3.25;0.73;;;2.90;99.90;;;;;;5058370;28;20431;-62
2023/11/29 10:15:08;;;;;;;1.10;0.70;;;2.90;99.90;;;;;;5067681;28;20458;-62
2023/11/29 10:17:36;;;;;;;1.10;0.70;;;2.90;99.90;;;;;;5066181;28;20428;-62
2023/11/29 10:20:04;;;;;;;1.20;0.70;;;3.00;99.90;;;;;;5068191;28;20505;-61
2023/11/29 10:22:34;;;;;;;1.58;0.75;;;3.10;99.90;;;;;;5067611;28;20431;-62
2023/11/29 10:25:19;;;;;;;1.30;0.70;;;3.10;99.90;;;;;;5068531;28;20420;-62
2023/11/29 10:27:46;;;;;;;1.20;0.70;;;3.20;99.90;;;;;;5070135;28;20431;-62
2023/11/29 10:30:14;;;;;;;1.58;0.80;;;3.30;99.90;;;;;;5060362;28;20455;-59
2023/11/29 10:32:42;;;;;;;1.50;0.70;;;3.30;99.90;;;;;;5051041;28;20421;-60
2023/11/29 10:35:13;;;;;;;2.40;0.80;;;3.30;99.90;;;;;;5050418;28;20783;-59
2023/11/29 10:37:44;;;;;;;1.20;0.70;;;3.30;99.90;;;;;;5047812;28;20425;-60
2023/11/29 10:40:14;;;;;;;1.10;0.70;;;3.40;99.90;;;;;;5049153;28;20928;-60
2023/11/29 10:42:44;;;;;;;1.10;0.68;;;3.40;99.90;;;;;;5048313;28;20439;-60
2023/11/29 10:45:17;;;;;;;1.63;0.60;;;3.50;99.90;;;;;;5047223;28;20517;-60
2023/11/29 10:47:53;;;;;;;1.50;0.60;;;3.50;99.90;;;;;;5067725;28;20420;-60
2023/11/29 10:50:24;;;;;;;1.70;0.80;;;3.40;99.90;;;;;;5067250;28;20803;-60
2023/11/29 10:52:51;;;;;;;1.70;0.70;;;3.50;99.90;;;;;;5082098;28;20432;-59
2023/11/29 10:55:20;;;;;;;1.40;0.70;;;3.60;99.90;;;;;;5087868;28;20425;-59
2023/11/29 10:57:57;;;;;;;1.10;0.60;;;3.70;99.90;;;;;;5087408;28;20424;-59
2023/11/29 11:00:26;;;;;;;1.95;0.63;;;3.80;99.90;;;;;;5088963;28;20842;-59
2023/11/29 11:02:54;;;;;;;1.50;0.70;;;3.80;99.90;;;;;;5067861;28;20431;-60
2023/11/29 11:05:24;;;;;;;3.00;0.70;;;3.80;99.90;;;;;;5068215;28;20580;-60
2023/11/29 11:07:52;;;;;;;1.10;0.70;;;3.70;99.90;;;;;;5068695;28;20452;-60
2023/11/29 11:10:23;;;;;;;1.20;0.60;;;3.80;99.90;;;;;;5068758;28;20800;-60
2023/11/29 11:12:53;;;;;;;1.20;0.70;;;3.90;99.90;;;;;;5069120;28;21082;-60
2023/11/29 11:15:24;;;;;;;1.20;0.70;;;3.90;99.90;;;;;;5067418;28;20722;-60
2023/11/29 11:18:24;;;;;;;1.10;0.70;;;4.00;99.90;;;;;;5066803;28;20750;-60
2023/11/29 11:20:55;;;;;;;1.20;0.70;;;3.90;99.90;;;;;;5067995;28;20769;-60
2023/11/29 11:23:24;;;;;;;1.20;0.60;;;3.70;99.90;;;;;;5067287;28;20513;-60
2023/11/29 11:25:54;;;;;;;1.20;0.60;;;3.70;99.90;;;;;;5070050;28;20424;-60
2023/11/29 11:28:29;;;;;;;0.93;0.60;;;3.70;99.90;;;;;;5067632;28;20751;-60
2023/11/29 11:30:56;;;;;;;1.30;0.70;;;3.60;99.90;;;;;;5067922;28;20419;-60
2023/11/29 11:33:23;;;;;;;1.10;0.60;;;3.70;99.90;;;;;;5066726;28;20429;-60
2023/11/29 11:35:50;;;;;;;0.93;0.60;;;3.80;99.90;;;;;;5067190;28;20483;-60
2023/11/29 11:38:19;;;;;;;1.00;0.50;;;3.90;99.90;;;;;;5067660;28;20749;-60
2023/11/29 11:40:47;;;;;;;1.00;0.50;;;4.10;99.90;;;;;;5066351;28;20811;-60
2023/11/29 11:43:17;;;;;;;1.00;0.70;;;4.20;99.90;;;;;;5066914;28;20423;-60
2023/11/29 11:45:47;;;;;;;1.10;0.70;;;4.30;99.90;;;;;;5066749;28;21807;-60
2023/11/29 11:48:14;;;;;;;1.52;0.80;;;4.00;99.90;;;;;;5063328;28;20510;-60
2023/11/29 11:50:42;;;;;;;1.50;0.80;;;4.00;99.90;;;;;;5067243;28;20447;-60
2023/11/29 11:53:09;;;;;;;1.20;0.60;;;4.10;99.90;;;;;;5068524;28;20741;-60
2023/11/29 11:55:40;;;;;;;1.77;0.60;;;4.10;99.90;;;;;;5068453;28;20431;-60
2023/11/29 11:58:09;;;;;;;1.20;0.60;;;4.20;99.90;;;;;;5070090;28;20493;-60
2023/11/29 12:00:36;;;;;;;1.30;0.60;;;4.10;99.90;;;;;;5069683;28;20889;-60
2023/11/29 12:03:08;;;;;;;1.40;0.60;;;4.20;99.90;;;;;;5067738;28;20416;-60
2023/11/29 12:05:36;;;;;;;1.38;0.60;;;4.40;99.90;;;;;;5068283;28;20412;-60
2023/11/29 12:08:05;;;;;;;1.08;0.50;;;4.40;99.90;;;;;;5067154;28;20521;-60
2023/11/29 12:10:34;;;;;;;1.10;0.60;;;4.40;99.90;;;;;;5068130;28;20712;-60
2023/11/29 12:13:02;;;;;;;0.80;0.60;;;4.40;99.90;;;;;;5061185;28;20450;-60
2023/11/29 12:15:34;;;;;;;1.25;0.50;;;4.30;99.90;;;;;;5062457;28;20446;-60
2023/11/29 12:18:01;;;;;;;0.90;0.60;;;4.30;99.90;;;;;;5081871;28;20721;-61
2023/11/29 12:20:30;;;;;;;0.97;0.60;;;4.40;99.90;;;;;;5078432;28;20869;-60
2023/11/29 12:22:57;;;;;;;1.80;0.60;;;4.40;99.90;;;;;;5077767;28;20886;-60
2023/11/29 12:25:25;;;;;;;1.23;0.70;;;4.30;99.90;;;;;;5065865;28;20518;-61
2023/11/29 12:27:52;;;;;;;1.30;0.60;;;4.10;99.90;;;;;;5064117;28;20438;-60
2023/11/29 12:30:19;;;;;;;1.33;0.70;;;4.00;99.90;;;;;;5078397;28;20435;-59
2023/11/29 12:32:46;;;;;;;1.15;0.60;;;3.90;99.90;;;;;;5066157;28;20793;-59
2023/11/29 12:35:15;;;;;;;1.47;0.70;;;3.90;99.90;;;;;;5075737;28;20890;-59
2023/11/29 12:37:45;;;;;;;0.90;0.50;;;3.80;99.90;;;;;;5056252;28;20427;-59
2023/11/29 12:40:16;;;;;;;1.00;0.50;;;3.80;99.90;;;;;;5067758;28;20438;-59
2023/11/29 12:42:44;;;;;;;1.30;0.70;;;4.00;99.90;;;;;;5071338;28;20427;-59
2023/11/29 12:45:12;;;;;;;1.10;0.60;;;4.00;99.90;;;;;;5070370;28;20435;-59
2023/11/29 12:47:39;;;;;;;1.20;0.60;;;4.00;99.90;;;;;;5081966;28;20753;-59
2023/11/29 12:50:07;;;;;;;1.00;0.60;;;3.90;99.90;;;;;;5073433;28;20431;-59
2023/11/29 12:52:34;;;;;;;1.70;0.60;;;3.90;99.90;;;;;;5072256;28;20442;-58
2023/11/29 12:55:03;;;;;;;1.10;0.60;;;3.80;99.90;;;;;;5068275;28;20439;-59
2023/11/29 12:57:31;;;;;;;0.85;0.60;;;3.70;99.90;;;;;;5081730;28;20434;-59
2023/11/29 12:59:58;;;;;;;0.93;0.50;;;3.70;99.90;;;;;;5064896;28;20453;-60
2023/11/29 13:02:25;;;;;;;1.00;0.50;;;3.60;99.90;;;;;;5074418;28;20963;-59